TENO2: Tenkiller Lake

Data processed at Fri Dec 08 2017 23:31


All information presented herein is the property of the government of the United States of America and may be revised or deleted at any time without prior notice.
Dissemination of this information without the expressed written consent of the Public Affairs Office, Tulsa District U.S. Army Corps of Engineers is strictly prohibited.
These data are gathered electronically and, as presented, have not undergone any form of quality control. These data are not guaranteed to be valid or correct.
Go to home page.
Go to station list.

Upstream stations:

Downstream station:
Previous Day
Next Day
Current Day
    
SHEF ID:       TENO2     Tenkiller Lake
STATION TYPE:  Reservoir
Normal Pool:  Bottom =   594.50, Top =   632.00

               PRECIP PRECIP(A) ELEVATION   STORAGE   TW-ELEV    INFLOW   RELEASE  AIR-TEMP  WIND-DIRWIND-SPEED REL-HUMID SOLAR-RAD   VOLTAGE  BAT-LOAD
                   in        in        ft     ac-ft        ft       cfs       cfs         F       deg       mph         %      W/m2      volt      volt
              Ccp-Rev   Ccp-Rev   Ccp-Rev   Ccp-Rev   Ccp-Rev  Regi-Rev  Regi-Rev   Ccp-Rev   Ccp-Rev   Ccp-Rev   Ccp-Rev   Ccp-Rev   Ccp-Rev   Ccp-Rev
(US/Central)
12/06 00:00      0.00      0.00    629.74    639517    482.07         0         0     28.13    157.10      0.39     91.38      0.00     13.75     13.24
12/06 01:00      0.00      0.00    629.75    639641    482.07         0         0     27.03    169.70      0.38     94.37      1.00     13.75     13.18
12/06 02:00      0.00      0.00    629.75    639641    482.05         0         0     26.47    168.60      0.39     96.51      1.00     13.75     13.24
12/06 03:00      0.00      0.00    629.76    639765    482.05         1         0     26.47    164.50      0.38     96.51      0.00     13.75     13.18
12/06 04:00      0.00      0.00    629.75    639641    482.04         2         0     25.59    168.90      0.33     96.26      0.00     13.74     13.18
12/06 05:00      0.00      0.00    629.74    639517    482.04         2         0     25.27    163.70      0.29     96.08      0.00     13.74     13.18
12/06 06:00      0.00      0.00    629.74    639517    483.59         5         0     24.94    163.50      0.38     98.46      0.00     13.74     13.18
12/06 07:00      0.00      0.00    629.73    639393    487.04         5      3600     24.60    140.20      0.38     99.07      1.00     13.74     13.18
12/06 08:00      0.00      0.00    629.72    639269    487.17         4      3600     25.70    124.60      0.33     99.07      6.00     13.74     13.18
12/06 09:00      0.00      0.00    629.67    638650    487.11         4      3600     32.95    135.60      0.39     80.64    119.00     13.74     13.12
12/06 10:00      0.00      0.00    629.67    638650    486.45         3      3600     41.52    188.70      0.74     47.37    358.00     13.74     13.12
12/06 11:00      0.00      0.00    629.67    638650    482.50         0         0     45.16    160.20      2.18     36.63    474.00     13.75     13.12
12/06 12:00      0.00      0.00    629.65    638402    482.13         0         0     47.46    119.50      4.42     35.77    540.00     13.75     13.18
12/06 13:00      0.00      0.00    629.66    638526    482.08         0         0     52.41    120.10      5.76     31.68    368.00     13.75     13.18
12/06 14:00      0.00      0.00    629.66    638526    482.07         0         0     56.03    169.00      2.69     23.75    479.00     13.75     13.18
12/06 15:00      0.00      0.00    629.66    638526    482.06         0         0     55.71    215.60      3.19     21.67    388.00     13.75     13.12
12/06 16:00      0.00      0.00    629.67    638650    482.04         0         0     54.82    214.60      2.57     26.13    209.00     13.75     13.12
12/06 17:00      0.00      0.00    629.65    638402    483.41         2         0     52.18    225.90      2.43     33.63     38.00     13.74     13.12
12/06 18:00      0.00      0.00    629.63    638154    487.12         5      3600     46.80    266.60      0.56     56.71      2.00     13.74     13.18
12/06 19:00      0.00      0.00    629.62    638030    487.08         5      3600     41.20    166.50      0.42     64.89      0.00     13.75     13.18
12/06 20:00      0.00      0.00    629.59    637658    486.38         5      3600     39.11    154.80      0.36     78.62      0.00     13.74     13.18
12/06 21:00      0.00      0.00    629.59    637658    482.49         5         0     38.57    223.50      0.32     82.65      0.00     13.75     13.18
12/06 22:00      0.00      0.00    629.59    637658    482.13         2         0     35.71    227.80      0.35     91.32      1.00     13.75     13.07
12/06 23:00      0.00      0.00    629.59    637658    482.08         0         0     32.41    140.20      0.41     93.94      0.00     13.75     13.12